Time;durP1;ratioP1;P1;durP2;ratioP2;P2;SDS_P1;SDS_P2;PMS_P1;PMS_P2;Temp;Humidity;BMP_temperature;BMP_pressure;BME280_temperature;BME280_humidity;BME280_pressure;Samples;Min_cycle;Max_cycle;Signal;HPM_P1;HPM_P2
2021/11/21 00:01:11;;;;;;;4.77;3.43;;;;;;;9.54;86.60;101148.22;5020420;28;20238;-72
2021/11/21 00:03:37;;;;;;;4.83;3.43;;;;;;;9.53;87.11;101148.19;5014191;28;20218;-72
2021/11/21 00:06:02;;;;;;;7.30;3.77;;;;;;;9.52;87.09;101141.34;5028979;28;20659;-72
2021/11/21 00:08:28;;;;;;;5.93;3.70;;;;;;;9.53;86.83;101141.38;5017284;28;20183;-72
2021/11/21 00:10:53;;;;;;;5.33;3.47;;;;;;;9.52;86.54;101136.22;5019348;28;20187;-72
2021/11/21 00:13:19;;;;;;;5.60;3.50;;;;;;;9.54;86.19;101137.16;5023624;28;20288;-72
2021/11/21 00:15:45;;;;;;;7.20;3.97;;;;;;;9.52;86.53;101129.44;5021914;28;20190;-72
2021/11/21 00:18:11;;;;;;;5.57;3.93;;;;;;;9.51;86.69;101125.16;5012186;28;20206;-72
2021/11/21 00:20:38;;;;;;;5.13;4.20;;;;;;;9.51;86.23;101125.16;5012024;28;20241;-72
2021/11/21 00:23:03;;;;;;;6.40;4.30;;;;;;;9.51;85.82;101114.94;5024259;28;20206;-73
2021/11/21 00:25:30;;;;;;;9.57;4.33;;;;;;;9.54;86.18;101111.59;5017447;28;20178;-72
2021/11/21 00:27:55;;;;;;;6.07;3.87;;;;;;;9.53;86.12;101109.84;5021739;28;20186;-72
2021/11/21 00:30:21;;;;;;;7.47;4.43;;;;;;;9.50;86.60;101100.41;5010036;28;20186;-71
2021/11/21 00:32:47;;;;;;;5.07;4.07;;;;;;;9.50;86.38;101097.00;5012012;28;20469;-72
2021/11/21 00:35:13;;;;;;;7.00;4.43;;;;;;;9.52;86.32;101091.09;5011281;28;20683;-72
2021/11/21 00:37:38;;;;;;;7.00;4.67;;;;;;;9.51;86.20;101091.94;5017550;28;20186;-72
2021/11/21 00:40:07;;;;;;;7.27;4.40;;;;;;;9.51;86.52;101094.50;5030200;28;20570;-73
2021/11/21 00:42:33;;;;;;;7.57;4.60;;;;;;;9.51;85.81;101091.06;5018254;28;20599;-72
2021/11/21 00:44:59;;;;;;;8.03;4.77;;;;;;;9.52;86.11;101075.75;5024755;28;20693;-72
2021/11/21 00:47:24;;;;;;;6.10;4.50;;;;;;;9.51;85.69;101065.50;5011817;28;20187;-72
2021/11/21 00:49:50;;;;;;;7.03;4.70;;;;;;;9.50;86.41;101056.94;5014809;28;20195;-71
2021/11/21 00:52:16;;;;;;;7.73;5.00;;;;;;;9.50;86.22;101074.84;5015017;28;20241;-72
2021/11/21 00:57:07;;;;;;;7.27;4.80;;;;;;;9.49;86.13;101052.66;5012237;28;20274;-71
2021/11/21 00:59:32;;;;;;;8.73;5.53;;;;;;;9.47;86.03;101050.91;5018166;28;20186;-72
2021/11/21 01:01:58;;;;;;;8.07;5.63;;;;;;;9.44;86.25;101046.56;5024822;28;20211;-72
2021/11/21 01:04:24;;;;;;;8.03;5.30;;;;;;;9.44;86.74;101049.13;5025081;28;20261;-72
2021/11/21 01:06:49;;;;;;;11.27;5.33;;;;;;;9.43;86.70;101046.53;5022930;28;20656;-72
2021/11/21 01:09:18;;;;;;;9.13;5.67;;;;;;;9.43;86.50;101049.06;5009838;28;20187;-72
2021/11/21 01:11:43;;;;;;;7.10;5.23;;;;;;;9.44;86.12;101041.47;5009532;28;20245;-73
2021/11/21 01:14:09;;;;;;;6.93;4.80;;;;;;;9.43;86.10;101024.41;5023924;28;20818;-72
2021/11/21 01:16:36;;;;;;;8.53;5.20;;;;;;;9.42;86.45;101019.25;5025500;28;20269;-72
2021/11/21 01:19:02;;;;;;;7.83;6.03;;;;;;;9.41;85.87;101020.06;5010587;28;20222;-72
2021/11/21 01:21:29;;;;;;;6.13;5.47;;;;;;;9.41;86.79;101023.50;5017676;28;20206;-72
2021/11/21 01:23:55;;;;;;;7.30;5.47;;;;;;;9.42;86.88;101027.78;5010827;28;20226;-72
2021/11/21 01:26:20;;;;;;;7.57;5.10;;;;;;;9.42;86.62;101025.22;5017503;28;20191;-72
2021/11/21 01:28:46;;;;;;;7.63;5.20;;;;;;;9.43;86.22;101020.97;5025164;28;20200;-73
2021/11/21 01:31:12;;;;;;;9.53;5.20;;;;;;;9.41;86.18;101020.94;5028016;28;20198;-72
2021/11/21 01:33:39;;;;;;;7.83;5.23;;;;;;;9.40;86.70;101019.19;5024021;28;20699;-71
2021/11/21 01:36:05;;;;;;;10.03;5.73;;;;;;;9.42;86.49;101019.25;5011429;28;20202;-71
2021/11/21 01:38:31;;;;;;;11.90;6.90;;;;;;;9.41;86.72;101017.50;5022639;28;20191;-73
2021/11/21 01:40:57;;;;;;;8.53;6.90;;;;;;;9.40;87.18;101016.63;5028349;28;20229;-72
2021/11/21 01:43:24;;;;;;;10.23;7.47;;;;;;;9.39;87.52;101007.25;5015685;28;20692;-72
2021/11/21 01:45:50;;;;;;;9.80;7.87;;;;;;;9.40;86.78;101005.56;5024801;28;20260;-73
2021/11/21 01:48:16;;;;;;;10.07;7.87;;;;;;;9.38;87.54;101007.19;5024286;28;20603;-73
2021/11/21 01:50:44;;;;;;;10.17;7.77;;;;;;;9.37;87.86;101001.25;5010118;28;20205;-72
2021/11/21 01:53:11;;;;;;;10.67;7.90;;;;;;;9.38;87.15;100996.97;5014966;28;20217;-72
2021/11/21 01:55:39;;;;;;;12.27;8.30;;;;;;;9.39;87.54;100991.03;5015847;28;20190;-72
2021/11/21 01:58:06;;;;;;;13.07;9.00;;;;;;;9.37;87.96;100997.81;5026253;28;20190;-73
2021/11/21 02:00:37;;;;;;;11.23;8.87;;;;;;;9.36;88.14;101001.19;5029588;28;20224;-72
2021/11/21 02:03:03;;;;;;;13.70;9.50;;;;;;;9.35;88.13;100991.81;5018366;28;20486;-71
2021/11/21 02:05:28;;;;;;;13.80;9.67;;;;;;;9.36;88.05;100990.97;5010201;28;20214;-73
2021/11/21 02:07:54;;;;;;;10.13;8.30;;;;;;;9.36;88.45;100990.97;5009734;28;20187;-73
2021/11/21 02:10:22;;;;;;;15.33;9.50;;;;;;;9.34;88.31;100983.25;5027982;28;20178;-72
2021/11/21 02:12:49;;;;;;;11.40;9.27;;;;;;;9.36;87.75;100976.50;5024215;28;20631;-73
2021/11/21 02:15:20;;;;;;;17.00;9.23;;;;;;;9.33;88.43;100961.09;5019515;28;20192;-71
2021/11/21 02:17:45;;;;;;;16.20;10.20;;;;;;;9.33;87.96;100958.53;5024624;28;20190;-72
2021/11/21 02:20:17;;;;;;;14.00;10.47;;;;;;;9.34;87.79;100959.38;5031423;28;20213;-72
2021/11/21 02:22:43;;;;;;;14.03;10.23;;;;;;;9.35;88.35;100954.31;5022660;28;20215;-71
2021/11/21 02:25:10;;;;;;;12.60;10.20;;;;;;;9.35;88.37;100949.22;5029036;28;20209;-74
2021/11/21 02:27:36;;;;;;;12.33;10.50;;;;;;;9.35;87.91;100949.22;5020349;28;20207;-72
2021/11/21 02:30:05;;;;;;;11.63;10.07;;;;;;;9.36;88.57;100952.66;5027038;28;20175;-72
2021/11/21 02:32:31;;;;;;;13.67;11.37;;;;;;;9.36;88.33;100952.66;5023846;28;20740;-72
2021/11/21 02:34:56;;;;;;;15.60;11.27;;;;;;;9.37;88.40;100956.94;5013278;28;20275;-73
2021/11/21 02:37:22;;;;;;;12.83;11.43;;;;;;;9.36;88.05;100934.75;5017005;28;20179;-72
2021/11/21 02:39:49;;;;;;;15.73;11.60;;;;;;;9.37;88.66;100934.81;5030974;28;20205;-72
2021/11/21 02:42:30;;;;;;;14.77;11.60;;;;;;;9.36;88.49;100934.75;5016870;28;20690;-72
2021/11/21 02:44:56;;;;;;;14.33;11.70;;;;;;;9.37;88.76;100926.25;5033280;28;20269;-73
2021/11/21 02:47:22;;;;;;;17.13;13.13;;;;;;;9.36;88.54;100920.28;5015009;28;20925;-72
2021/11/21 02:49:48;;;;;;;17.90;13.43;;;;;;;9.36;89.13;100922.81;5028567;28;20180;-72
2021/11/21 02:52:13;;;;;;;16.63;13.20;;;;;;;9.36;88.83;100920.28;5028527;28;20256;-72
2021/11/21 02:54:52;;;;;;;17.53;13.70;;;;;;;9.36;89.20;100909.22;5017296;28;20722;-72
2021/11/21 02:57:18;;;;;;;16.97;14.37;;;;;;;9.37;88.98;100899.03;5025934;28;20186;-72
2021/11/21 02:59:44;;;;;;;16.57;13.63;;;;;;;9.36;89.00;100904.94;5034391;28;20277;-72
2021/11/21 03:02:10;;;;;;;17.87;15.10;;;;;;;9.37;88.93;100905.81;5027504;28;20208;-72
2021/11/21 03:04:36;;;;;;;16.30;13.77;;;;;;;9.37;88.65;100900.72;5021794;28;20190;-73
2021/11/21 03:07:03;;;;;;;18.27;14.67;;;;;;;9.36;88.89;100901.53;5018832;28;20190;-72
2021/11/21 03:09:28;;;;;;;16.03;13.77;;;;;;;9.38;89.17;100910.09;5012513;28;20186;-73
2021/11/21 03:11:56;;;;;;;17.80;14.43;;;;;;;9.41;88.90;100900.84;5013613;28;20203;-72
2021/11/21 03:14:23;;;;;;;18.37;15.00;;;;;;;9.38;89.03;100899.88;5012586;28;20190;-71
2021/11/21 03:16:50;;;;;;;20.37;15.00;;;;;;;9.34;89.90;100903.19;5021820;28;20193;-72
2021/11/21 03:19:16;;;;;;;17.83;14.13;;;;;;;9.31;90.39;100891.19;5019876;28;20221;-71
2021/11/21 03:21:42;;;;;;;16.97;14.20;;;;;;;9.32;91.56;100897.19;5013219;28;20206;-71
2021/11/21 03:24:08;;;;;;;16.23;13.40;;;;;;;9.31;90.92;100901.41;5031874;28;20203;-72
2021/11/21 03:26:33;;;;;;;17.90;14.37;;;;;;;9.32;91.69;100898.06;5021075;28;20190;-72
2021/11/21 03:28:59;;;;;;;17.23;13.63;;;;;;;9.27;91.55;100891.09;5025903;28;20183;-72
2021/11/21 03:31:24;;;;;;;21.60;15.73;;;;;;;9.26;92.43;100891.94;5013909;28;20179;-72
2021/11/21 03:33:50;;;;;;;21.43;15.13;;;;;;;9.23;91.91;100899.50;5027463;28;20238;-72
2021/11/21 03:36:15;;;;;;;21.53;15.57;;;;;;;9.19;92.59;100900.25;5012178;28;20195;-72
2021/11/21 03:38:41;;;;;;;19.73;15.33;;;;;;;9.17;92.77;100889.97;5012241;28;20190;-72
2021/11/21 03:41:07;;;;;;;21.10;15.60;;;;;;;9.20;92.88;100890.06;5011994;28;20687;-72
2021/11/21 03:43:32;;;;;;;18.90;14.73;;;;;;;9.19;92.96;100896.00;5027889;28;20222;-72
2021/11/21 03:45:58;;;;;;;20.23;15.33;;;;;;;9.21;93.23;100886.69;5013034;28;20198;-71
2021/11/21 03:48:24;;;;;;;23.60;15.90;;;;;;;9.18;93.73;100894.28;5012660;28;20218;-71
2021/11/21 03:50:50;;;;;;;20.87;14.73;;;;;;;9.19;93.63;100900.25;5022598;28;20186;-72
2021/11/21 03:53:18;;;;;;;20.83;15.63;;;;;;;9.18;93.07;100896.84;5015671;28;20211;-72
2021/11/21 03:55:44;;;;;;;24.03;16.00;;;;;;;9.16;93.73;100895.03;5012887;28;20187;-72
2021/11/21 03:58:10;;;;;;;21.43;16.63;;;;;;;9.15;93.93;100899.31;5023908;28;20191;-72
2021/11/21 04:00:36;;;;;;;27.43;16.70;;;;;;;9.14;94.45;100896.72;5018164;28;20255;-72
2021/11/21 04:03:02;;;;;;;22.53;16.90;;;;;;;9.13;94.33;100897.53;5020564;28;20219;-72
2021/11/21 04:05:27;;;;;;;22.27;15.37;;;;;;;9.15;94.12;100895.88;5012042;28;20179;-72
2021/11/21 04:07:54;;;;;;;21.93;15.23;;;;;;;9.13;93.95;100895.84;5016956;28;20206;-72
2021/11/21 04:10:19;;;;;;;22.53;15.50;;;;;;;9.15;94.49;100889.09;5011404;28;20600;-72
2021/11/21 04:12:45;;;;;;;20.53;14.47;;;;;;;9.17;94.69;100900.19;5021429;28;20216;-72
2021/11/21 04:15:11;;;;;;;21.33;14.63;;;;;;;9.19;94.20;100900.25;5031409;28;20784;-72
2021/11/21 04:17:38;;;;;;;21.27;15.10;;;;;;;9.17;94.85;100901.91;5014330;28;20191;-72
2021/11/21 04:20:05;;;;;;;23.30;15.97;;;;;;;9.16;94.51;100906.13;5015423;28;20210;-73
2021/11/21 04:22:30;;;;;;;22.57;16.13;;;;;;;9.17;94.38;100905.31;5017373;28;20613;-73
2021/11/21 04:24:57;;;;;;;23.50;16.00;;;;;;;9.16;94.89;100897.59;5011175;28;20240;-73
2021/11/21 04:27:26;;;;;;;21.57;16.73;;;;;;;9.14;94.13;100905.25;5027001;28;20967;-72
2021/11/21 04:29:53;;;;;;;21.53;15.67;;;;;;;9.14;94.60;100896.72;5011140;28;20240;-71
2021/11/21 04:32:19;;;;;;;21.67;16.03;;;;;;;9.14;94.52;100896.72;5014703;28;20210;-72
2021/11/21 04:34:44;;;;;;;20.10;15.43;;;;;;;9.14;94.76;100895.03;5020869;28;20190;-72
2021/11/21 04:37:09;;;;;;;19.77;13.87;;;;;;;9.14;94.74;100884.81;5017887;28;20210;-72
2021/11/21 04:39:35;;;;;;;18.17;12.83;;;;;;;9.14;94.25;100894.16;5026597;28;20776;-72
2021/11/21 04:42:01;;;;;;;14.67;11.00;;;;;;;9.12;94.79;100888.16;5014433;28;20213;-72
2021/11/21 04:44:27;;;;;;;13.37;10.30;;;;;;;9.07;94.25;100885.47;5030253;28;20269;-72
2021/11/21 04:46:52;;;;;;;10.63;8.60;;;;;;;9.09;94.72;100890.63;5019821;28;20660;-73
2021/11/21 04:49:18;;;;;;;11.70;8.70;;;;;;;9.07;94.54;100897.38;5036404;28;20186;-73
2021/11/21 04:51:43;;;;;;;9.07;7.63;;;;;;;9.09;94.32;100893.19;5028481;28;20278;-72
2021/11/21 04:54:15;;;;;;;11.67;7.73;;;;;;;9.08;94.23;100894.84;5025021;28;20741;-72
2021/11/21 04:56:45;;;;;;;9.83;7.57;;;;;;;9.08;94.38;100888.91;5028666;28;20532;-72
2021/11/21 04:59:10;;;;;;;9.73;7.67;;;;;;;9.08;94.31;100889.75;5028508;28;20186;-72
2021/11/21 05:01:36;;;;;;;9.97;7.40;;;;;;;9.07;94.08;100892.28;5029975;28;20233;-71
2021/11/21 05:04:01;;;;;;;8.70;7.10;;;;;;;9.07;94.03;100890.56;5025071;28;20327;-75
2021/11/21 05:06:27;;;;;;;9.20;7.23;;;;;;;9.07;93.63;100882.91;5022242;28;20186;-71
2021/11/21 05:08:53;;;;;;;10.97;7.07;;;;;;;9.05;93.57;100889.69;5013196;28;20860;-72
2021/11/21 05:11:18;;;;;;;9.93;7.67;;;;;;;9.03;94.45;100893.88;5020425;28;20289;-72
2021/11/21 05:13:44;;;;;;;9.67;7.50;;;;;;;9.02;94.64;100891.28;5021950;28;20199;-73
2021/11/21 05:16:10;;;;;;;9.57;6.93;;;;;;;9.03;93.97;100887.91;5022626;28;20201;-72
2021/11/21 05:18:35;;;;;;;9.20;7.10;;;;;;;9.03;93.81;100887.91;5021287;28;20195;-72
2021/11/21 05:21:00;;;;;;;10.60;6.60;;;;;;;9.02;94.07;100893.81;5011265;28;20294;-73
2021/11/21 05:23:26;;;;;;;9.33;5.90;;;;;;;9.02;93.78;100896.38;5017915;28;20214;-72
2021/11/21 05:25:51;;;;;;;8.37;4.70;;;;;;;9.02;93.12;100898.94;5010709;28;20198;-72
2021/11/21 05:28:17;;;;;;;8.93;4.87;;;;;;;9.01;93.35;100894.66;5010259;28;20195;-72
2021/11/21 05:30:47;;;;;;;6.80;3.67;;;;;;;9.00;93.40;100887.81;5010986;28;20191;-72
2021/11/21 05:33:14;;;;;;;4.93;2.83;;;;;;;8.94;93.26;100885.97;5014928;28;20206;-72
2021/11/21 05:35:39;;;;;;;5.77;2.97;;;;;;;8.94;92.95;100891.06;5020415;28;20602;-72
2021/11/21 05:38:05;;;;;;;3.93;2.70;;;;;;;8.92;92.93;100885.06;5022269;28;20186;-72
2021/11/21 05:40:30;;;;;;;9.20;3.13;;;;;;;8.93;93.11;100885.91;5024462;28;20219;-71
2021/11/21 05:42:56;;;;;;;3.37;2.33;;;;;;;8.94;92.76;100891.06;5012411;28;20222;-72
2021/11/21 05:45:23;;;;;;;3.80;2.03;;;;;;;8.90;92.87;100890.97;5023581;28;20178;-72
2021/11/21 05:47:48;;;;;;;5.43;2.20;;;;;;;8.90;92.96;100888.41;5018514;28;20192;-72
2021/11/21 05:50:15;;;;;;;4.80;2.10;;;;;;;8.89;93.92;100889.25;5023267;28;20640;-73
2021/11/21 05:52:46;;;;;;;4.17;1.90;;;;;;;8.87;94.15;100894.31;5023002;28;20652;-71
2021/11/21 05:55:14;;;;;;;3.77;2.17;;;;;;;8.88;93.94;100901.13;5018500;28;20232;-72
2021/11/21 05:57:40;;;;;;;4.77;1.97;;;;;;;8.88;93.26;100900.25;5028665;28;20304;-72
2021/11/21 06:00:09;;;;;;;3.20;1.97;;;;;;;8.88;93.60;100902.81;5009747;28;20802;-72
2021/11/21 06:02:37;;;;;;;3.53;1.97;;;;;;;8.88;93.97;100890.03;5008310;28;20688;-72
2021/11/21 06:05:04;;;;;;;4.03;1.80;;;;;;;8.82;94.00;100897.56;5026801;28;20194;-71
2021/11/21 06:07:29;;;;;;;4.20;1.83;;;;;;;8.85;93.45;100905.31;5008441;28;20189;-72
2021/11/21 06:09:55;;;;;;;6.20;2.03;;;;;;;8.83;94.40;100900.16;5028355;28;20588;-71
2021/11/21 06:12:21;;;;;;;3.50;1.93;;;;;;;8.86;94.09;100895.13;5029228;28;20207;-72
2021/11/21 06:14:46;;;;;;;5.07;1.67;;;;;;;8.86;93.72;100900.25;5012473;28;20190;-72
2021/11/21 06:17:12;;;;;;;7.80;1.70;;;;;;;8.84;93.70;100894.22;5022785;28;20215;-72
2021/11/21 06:19:39;;;;;;;5.67;1.60;;;;;;;8.82;93.52;100895.88;5009979;28;20194;-72
2021/11/21 06:22:05;;;;;;;7.10;1.80;;;;;;;8.82;93.01;100897.56;5009584;28;20211;-73
2021/11/21 06:24:31;;;;;;;6.07;1.97;;;;;;;8.79;92.82;100895.78;5023268;28;20194;-73
2021/11/21 06:26:56;;;;;;;10.87;1.63;;;;;;;8.80;92.82;100884.75;5016613;28;20183;-72
2021/11/21 06:29:23;;;;;;;11.60;2.50;;;;;;;8.78;92.61;100890.63;5024358;28;20546;-72
2021/11/21 06:31:50;;;;;;;11.83;2.40;;;;;;;8.77;92.52;100896.56;5029197;28;20178;-72
2021/11/21 06:34:16;;;;;;;11.33;1.73;;;;;;;8.76;91.71;100898.22;5015433;28;20179;-73
2021/11/21 06:36:42;;;;;;;12.43;2.47;;;;;;;8.74;92.14;100897.34;5021495;28;20270;-72
2021/11/21 06:39:08;;;;;;;15.70;2.60;;;;;;;8.73;92.14;100897.28;5017908;28;20214;-73
2021/11/21 06:41:35;;;;;;;10.20;1.97;;;;;;;8.73;90.91;100910.06;5029393;28;20276;-72
2021/11/21 06:44:01;;;;;;;8.27;1.63;;;;;;;8.68;91.10;100899.75;5018493;28;20210;-72
2021/11/21 06:46:27;;;;;;;8.37;1.90;;;;;;;8.69;90.32;100910.78;5009532;28;20195;-72
2021/11/21 06:48:52;;;;;;;9.17;1.97;;;;;;;8.61;90.26;100902.94;5014398;28;20203;-72
2021/11/21 06:51:19;;;;;;;8.47;2.30;;;;;;;8.65;90.45;100888.56;5008799;28;20187;-72
2021/11/21 06:53:47;;;;;;;8.90;2.03;;;;;;;8.63;90.12;100895.31;5009701;28;20572;-72
2021/11/21 06:56:13;;;;;;;11.50;2.07;;;;;;;8.63;90.12;100895.31;5009358;28;20187;-72
2021/11/21 06:58:38;;;;;;;6.83;1.67;;;;;;;8.64;90.44;100894.50;5009130;28;20236;-72
2021/11/21 07:01:03;;;;;;;8.10;1.93;;;;;;;8.66;89.65;100893.72;5007779;28;20779;-73
2021/11/21 07:03:29;;;;;;;9.57;2.27;;;;;;;8.66;90.24;100900.53;5009097;28;20211;-72
2021/11/21 07:05:55;;;;;;;14.20;1.90;;;;;;;8.63;89.70;100906.41;5009881;28;20187;-72
2021/11/21 07:08:20;;;;;;;10.37;1.83;;;;;;;8.62;88.85;100907.19;5011136;28;20191;-72
2021/11/21 07:10:46;;;;;;;7.80;2.30;;;;;;;8.62;89.79;100912.31;5012642;28;20191;-72
2021/11/21 07:13:12;;;;;;;10.83;2.10;;;;;;;8.61;89.45;100899.53;5012685;28;20211;-73
2021/11/21 07:15:37;;;;;;;8.93;2.57;;;;;;;8.60;89.11;100913.97;5012419;28;20265;-72
2021/11/21 07:18:03;;;;;;;13.40;2.20;;;;;;;8.58;89.53;100918.19;5012263;28;20247;-72
2021/11/21 07:20:28;;;;;;;14.40;2.70;;;;;;;8.60;89.51;100902.88;5010875;28;20210;-72
2021/11/21 07:22:54;;;;;;;12.07;2.47;;;;;;;8.59;90.15;100901.16;5012335;28;20293;-72
2021/11/21 07:25:22;;;;;;;12.60;3.00;;;;;;;8.60;90.60;100907.97;5012415;28;20608;-72
2021/11/21 07:27:49;;;;;;;14.77;2.97;;;;;;;8.61;89.92;100908.03;5010961;28;20195;-72
2021/11/21 07:30:18;;;;;;;13.43;2.93;;;;;;;8.63;90.02;100910.63;5011699;28;20179;-73
2021/11/21 07:32:45;;;;;;;13.23;2.63;;;;;;;8.64;91.40;100914.91;5012159;28;20206;-72
2021/11/21 07:35:12;;;;;;;14.73;2.57;;;;;;;8.66;90.56;100920.94;5010816;28;20551;-73
2021/11/21 07:37:38;;;;;;;9.67;2.40;;;;;;;8.65;90.71;100914.97;5012222;28;20188;-72
2021/11/21 07:40:04;;;;;;;15.13;2.70;;;;;;;8.66;90.61;100913.28;5011899;28;20221;-72
2021/11/21 07:42:30;;;;;;;9.77;2.30;;;;;;;8.67;91.49;100912.44;5013007;28;20215;-73
2021/11/21 07:44:55;;;;;;;11.77;2.90;;;;;;;8.68;90.90;100915.06;5022899;28;20253;-73
2021/11/21 07:47:21;;;;;;;9.07;2.67;;;;;;;8.69;91.61;100914.22;5011984;28;20286;-72
2021/11/21 07:49:47;;;;;;;11.63;2.77;;;;;;;8.70;91.32;100922.75;5024138;28;20210;-72
2021/11/21 07:52:12;;;;;;;14.40;2.87;;;;;;;8.73;91.69;100926.25;5031684;28;20206;-72
2021/11/21 07:54:38;;;;;;;12.23;3.00;;;;;;;8.73;91.78;100922.81;5030587;28;20681;-73
2021/11/21 07:57:04;;;;;;;15.37;3.47;;;;;;;8.74;91.65;100927.09;5031578;28;20206;-73
2021/11/21 07:59:29;;;;;;;10.83;2.60;;;;;;;8.77;91.07;100935.72;5031104;28;20201;-72
2021/11/21 08:01:55;;;;;;;12.20;2.57;;;;;;;8.80;91.30;100932.41;5018968;28;20203;-71
2021/11/21 08:04:20;;;;;;;8.83;2.27;;;;;;;8.81;90.78;100945.19;5015014;28;20222;-73
2021/11/21 08:06:46;;;;;;;13.73;2.90;;;;;;;8.80;91.33;100948.56;5029988;28;20654;-73
2021/11/21 08:09:12;;;;;;;10.77;2.83;;;;;;;8.80;91.45;100943.44;5025780;28;20194;-71
2021/11/21 08:11:38;;;;;;;8.37;2.30;;;;;;;8.79;91.17;100946.84;5010094;28;20190;-72
2021/11/21 08:14:03;;;;;;;12.17;2.63;;;;;;;8.79;91.37;100949.38;5011082;28;20215;-72
2021/11/21 08:16:29;;;;;;;10.00;2.37;;;;;;;8.79;91.99;100953.63;5011113;28;20552;-73
2021/11/21 08:18:55;;;;;;;12.10;2.73;;;;;;;8.80;91.28;100950.28;5011105;28;20187;-72
2021/11/21 08:21:20;;;;;;;9.83;2.60;;;;;;;8.88;91.57;100947.09;5031226;28;20213;-73
2021/11/21 08:23:46;;;;;;;13.17;2.70;;;;;;;8.95;92.00;100948.13;5029593;28;20218;-72
2021/11/21 08:26:11;;;;;;;5.77;2.50;;;;;;;9.03;91.04;100947.50;5028925;28;20190;-73
2021/11/21 08:28:39;;;;;;;9.13;3.20;;;;;;;9.04;91.43;100954.34;5019687;28;20186;-72
2021/11/21 08:31:05;;;;;;;7.90;2.50;;;;;;;9.09;91.65;100955.34;5030828;28;20640;-72
2021/11/21 08:33:31;;;;;;;11.33;2.97;;;;;;;9.25;91.05;100946.38;5016828;28;20235;-72
2021/11/21 08:35:56;;;;;;;8.13;2.80;;;;;;;9.36;90.68;100947.53;5010941;28;20684;-72
2021/11/21 08:38:22;;;;;;;9.37;2.70;;;;;;;9.38;90.62;100946.75;5009545;28;20672;-72
2021/11/21 08:40:47;;;;;;;9.70;3.17;;;;;;;9.39;90.57;100945.91;5010790;28;20217;-71
2021/11/21 08:43:13;;;;;;;8.43;3.30;;;;;;;9.42;90.70;100953.66;5009357;28;20711;-72
2021/11/21 08:45:39;;;;;;;13.10;3.13;;;;;;;9.45;91.11;100946.06;5024240;28;20182;-72
2021/11/21 08:48:04;;;;;;;7.13;3.20;;;;;;;9.50;90.57;100941.09;5028969;28;20194;-73
2021/11/21 08:50:31;;;;;;;7.60;3.43;;;;;;;9.57;89.57;100941.28;5030486;28;20187;-72
2021/11/21 08:52:57;;;;;;;8.23;3.57;;;;;;;9.74;89.61;100939.13;5030406;28;20273;-73
2021/11/21 08:55:23;;;;;;;9.63;4.30;;;;;;;9.73;89.08;100945.91;5030463;28;20647;-72
2021/11/21 08:57:48;;;;;;;7.03;3.43;;;;;;;9.93;88.93;100952.38;5030610;28;20720;-71
2021/11/21 09:00:15;;;;;;;9.90;3.80;;;;;;;9.92;88.65;100948.09;5027670;28;20206;-73
2021/11/21 09:02:42;;;;;;;6.07;4.30;;;;;;;10.08;88.54;100942.53;5019263;28;20727;-70
2021/11/21 09:05:09;;;;;;;9.63;4.67;;;;;;;10.03;87.85;100946.66;5030518;28;20678;-71
2021/11/21 09:07:36;;;;;;;7.77;3.80;;;;;;;10.12;87.56;100962.25;5007145;28;20260;-72
2021/11/21 09:10:08;;;;;;;8.53;3.87;;;;;;;10.34;86.52;100951.66;5017203;28;20659;-72
2021/11/21 09:12:33;;;;;;;10.43;4.03;;;;;;;10.57;85.59;100955.59;5027570;28;20228;-69
2021/11/21 09:14:59;;;;;;;7.43;4.00;;;;;;;10.81;84.99;100955.19;5012006;28;20571;-73
2021/11/21 09:17:25;;;;;;;9.40;3.73;;;;;;;10.77;84.54;100958.53;5030101;28;20194;-72
2021/11/21 09:19:51;;;;;;;9.80;4.40;;;;;;;10.50;84.97;100963.94;5029542;28;20194;-71
2021/11/21 09:22:16;;;;;;;8.40;3.70;;;;;;;10.43;84.98;100962.09;5025165;28;20219;-71
2021/11/21 09:24:42;;;;;;;12.57;4.80;;;;;;;10.54;85.01;100959.75;5020087;28;20257;-72
2021/11/21 09:27:13;;;;;;;10.90;4.77;;;;;;;10.54;84.86;100962.31;5010091;28;20175;-72
2021/11/21 09:29:42;;;;;;;6.50;2.57;;;;;;;10.06;83.59;100954.44;5005380;28;20646;-72
2021/11/21 09:32:09;;;;;;;11.27;3.10;;;;;;;10.16;83.35;100964.06;5027711;28;20911;-73
2021/11/21 09:34:35;;;;;;;5.17;3.03;;;;;;;10.22;83.78;100958.19;5028388;28;20190;-71
2021/11/21 09:37:00;;;;;;;7.63;3.37;;;;;;;10.21;83.79;100966.69;5028320;28;20690;-71
2021/11/21 09:39:27;;;;;;;8.57;3.60;;;;;;;10.99;82.84;100961.56;5028776;28;20190;-72
2021/11/21 09:41:52;;;;;;;10.67;3.70;;;;;;;10.58;82.92;100964.09;5026357;28;20295;-72
2021/11/21 09:44:19;;;;;;;9.73;4.50;;;;;;;12.18;78.62;100959.41;5029421;28;20659;-72
2021/11/21 09:46:45;;;;;;;10.13;3.47;;;;;;;14.39;68.17;100941.13;5026624;28;20245;-73
2021/11/21 09:49:12;;;;;;;10.03;3.80;;;;;;;14.41;67.83;100941.16;5026026;28;20269;-72
2021/11/21 09:51:38;;;;;;;7.53;2.90;;;;;;;15.59;64.45;100943.25;5016400;28;20183;-70
2021/11/21 09:54:04;;;;;;;8.53;3.20;;;;;;;13.33;70.81;100947.97;5028270;28;20190;-70
2021/11/21 09:56:30;;;;;;;6.63;2.93;;;;;;;12.91;73.58;100958.66;5029382;28;20196;-69
2021/11/21 09:58:55;;;;;;;8.40;3.43;;;;;;;12.34;76.00;100956.19;5028963;28;20195;-70
2021/11/21 10:01:37;;;;;;;7.20;2.90;;;;;;;13.41;72.95;100951.50;5029186;28;20205;-70
2021/11/21 10:04:03;;;;;;;6.53;2.83;;;;;;;13.80;71.29;100945.00;5029509;28;20174;-70
2021/11/21 10:06:37;;;;;;;7.70;2.90;;;;;;;14.39;68.94;100937.69;5029409;28;20254;-69
2021/11/21 10:09:08;;;;;;;9.43;2.90;;;;;;;14.85;67.32;100937.03;5028945;28;20182;-70
2021/11/21 10:12:04;;;;;;;7.27;2.47;;;;;;;14.54;68.68;100932.63;5029123;28;20178;-70
2021/11/21 10:14:32;;;;;;;10.57;3.27;;;;;;;14.18;68.52;100929.81;5029284;28;20186;-70
2021/11/21 10:16:58;;;;;;;4.97;1.87;;;;;;;14.85;66.04;100932.75;5027976;28;20174;-69
2021/11/21 10:19:23;;;;;;;9.23;2.23;;;;;;;15.70;63.28;100934.66;5028810;28;20730;-70
2021/11/21 10:21:50;;;;;;;9.00;2.47;;;;;;;14.80;65.14;100939.63;5018590;28;20791;-70
2021/11/21 10:24:29;;;;;;;7.17;2.37;;;;;;;14.85;65.30;100955.97;5010577;28;20191;-69
2021/11/21 10:27:08;;;;;;;9.17;2.57;;;;;;;15.45;63.73;100945.84;5029282;28;20192;-70
2021/11/21 10:29:39;;;;;;;9.67;2.80;;;;;;;14.70;65.34;100947.31;5028917;28;20179;-70
2021/11/21 10:32:18;;;;;;;4.93;2.10;;;;;;;14.20;67.52;100949.63;5027813;28;20209;-69
2021/11/21 10:35:05;;;;;;;9.37;2.50;;;;;;;14.15;67.78;100952.97;5028987;28;20174;-70
2021/11/21 10:37:38;;;;;;;6.47;2.17;;;;;;;13.97;69.65;100951.13;5029088;28;20179;-69
2021/11/21 10:40:08;;;;;;;9.30;2.57;;;;;;;13.42;69.76;100948.06;5028514;28;20678;-69
2021/11/21 10:42:35;;;;;;;8.87;2.37;;;;;;;14.71;66.47;100942.16;5029062;28;20721;-70
2021/11/21 10:45:02;;;;;;;7.20;2.53;;;;;;;14.68;66.14;100943.88;5028733;28;20269;-70
2021/11/21 10:47:47;;;;;;;11.17;2.97;;;;;;;15.19;64.42;100941.47;5031255;28;20190;-70
2021/11/21 10:50:25;;;;;;;9.10;2.70;;;;;;;14.77;65.26;100944.75;5030649;28;20206;-70
2021/11/21 10:52:51;;;;;;;8.20;2.70;;;;;;;14.66;64.65;100946.44;5031134;28;20344;-73
2021/11/21 10:55:18;;;;;;;9.53;2.60;;;;;;;15.32;63.91;100941.47;5030406;28;20281;-73
2021/11/21 10:57:44;;;;;;;10.67;2.50;;;;;;;15.70;61.67;100937.22;5030829;28;20190;-73
2021/11/21 11:00:18;;;;;;;11.17;2.30;;;;;;;16.52;59.27;100938.88;5030728;28;20201;-73
2021/11/21 11:02:44;;;;;;;11.93;2.20;;;;;;;15.94;60.44;100947.53;5032367;28;20297;-73
2021/11/21 11:05:15;;;;;;;8.20;2.30;;;;;;;15.43;61.11;100947.53;5029394;28;20229;-70
2021/11/21 11:07:50;;;;;;;8.63;2.30;;;;;;;14.59;63.73;100946.41;5029821;28;20675;-71
2021/11/21 11:10:16;;;;;;;8.83;2.50;;;;;;;14.33;64.28;100940.25;5032088;28;20631;-71
2021/11/21 11:12:48;;;;;;;6.00;2.03;;;;;;;16.29;58.08;100939.75;5030183;28;20205;-70
2021/11/21 11:15:15;;;;;;;8.97;2.50;;;;;;;17.71;52.45;100933.91;5030893;28;20659;-71
2021/11/21 11:17:41;;;;;;;5.97;2.23;;;;;;;19.50;48.25;100924.03;5026126;28;20221;-71
2021/11/21 11:20:15;;;;;;;5.53;2.30;;;;;;;19.60;46.61;100925.59;5029794;28;20229;-70
2021/11/21 11:22:43;;;;;;;9.30;2.27;;;;;;;19.01;46.22;100917.78;5030375;28;20225;-70
2021/11/21 11:25:13;;;;;;;7.23;2.30;;;;;;;16.53;52.25;100931.97;5031827;28;20186;-70
2021/11/21 11:27:46;;;;;;;5.50;2.03;;;;;;;15.20;54.76;100918.22;5031856;28;20217;-70